KSVC  Grant County Airport

Add Bookmark

Silver City, New Mexico, United States

Status Useage IATA
Operational Public SVC
Latitude Longitude
32° 38' 11" N 108° 9' 22" W
32.636547 -108.156385
Local (DST -6) UTC (GMT -7)
Sep 30, 2014 04:08 Sep 30, 2014 10:08
Sunrise-Sunset Local UTC
Begin Civil Twilight 06:40 12:40
Sunrise 07:05 13:05
Sunset 06:59 00:59
End Civil Twilight 07:23 01:23

Current Weather

METAR Observed VFR
KSVC 300935Z AUTO 34009KT 10SM CLR 11/07 A3006 Tue, Sep 30, 2014 @ 09:35 UTC
(33 Minutes ago)
Visual Flight Rules
Wind Visibility Clouds Conditions
340° at 9 knots (10 mph) 10 statute miles
  • Clear skies
  • No significant weather
Temperatures Readings Precipitation
Current Temp 11°C (52°F)
Dewpoint 7°C (45°F)
Humidity 77%
Altimeter 30.06"Hg
Sea Level Pressure 1018mb
Field Elevation 5443.01'
None Recorded

Additional weather within a 50nm radius of KSVC

Map ICAO Location
KDMN 31.5nm S (135°)
KLSB 32.6nm S (236°)

24 Hour Weather History

Loading
-

24 Hour Weather Graphs

Loading
-

CheckWX.com is intended as a tool to help pilots better visualize weather data. It is not intended as a substitute for an official weather briefing obtained from a Flight Service Station. CheckWX.com does not meet the FAA requirements for an official pre-flight weather briefing. Therefore, it's important that pilots still call and obtain an official FSS pre-flight weather briefing.